createdAt,value
2019-02-08T00:00:27.720Z,11.78
2019-02-08T00:02:59.853Z,12.10
2019-02-08T00:05:32.198Z,12.05
2019-02-08T00:08:04.552Z,12.00
2019-02-08T00:10:36.902Z,11.35
2019-02-08T00:13:09.019Z,13.40
2019-02-08T00:15:41.243Z,10.60
2019-02-08T00:18:13.997Z,12.07
2019-02-08T00:20:46.402Z,12.40
2019-02-08T00:23:26.207Z,11.30
2019-02-08T00:25:53.000Z,13.50
2019-02-08T00:28:25.339Z,11.78
2019-02-08T00:30:57.454Z,12.13
2019-02-08T00:33:29.510Z,13.27
2019-02-08T00:36:01.575Z,9.67
2019-02-08T00:38:34.389Z,12.37
2019-02-08T00:41:06.890Z,12.98
2019-02-08T00:43:39.220Z,10.90
2019-02-08T00:46:11.294Z,7.10
2019-02-08T00:48:43.356Z,12.37
2019-02-08T00:51:15.610Z,8.37
2019-02-08T00:53:48.049Z,12.18
2019-02-08T00:56:20.434Z,17.92
2019-02-08T00:58:52.623Z,11.63
2019-02-08T01:01:25.035Z,16.40
2019-02-08T01:03:57.389Z,11.60
2019-02-08T01:06:29.469Z,11.07
2019-02-08T01:09:01.610Z,12.87
2019-02-08T01:11:33.961Z,12.37
2019-02-08T01:14:06.134Z,8.70
2019-02-08T01:16:38.270Z,11.30
2019-02-08T01:19:10.489Z,12.37
2019-02-08T01:21:42.930Z,10.95
2019-02-08T01:24:15.269Z,10.48
2019-02-08T01:26:47.355Z,13.23
2019-02-08T01:29:19.766Z,10.60
2019-02-08T01:31:52.124Z,9.10
2019-02-08T01:34:24.963Z,9.70
2019-02-08T01:36:57.057Z,7.90
2019-02-08T01:39:29.178Z,13.13
2019-02-08T01:42:01.322Z,11.83
2019-02-08T01:44:33.681Z,12.25
2019-02-08T01:47:06.369Z,9.00
2019-02-08T01:49:57.763Z,10.05
2019-02-08T01:52:29.843Z,10.57
2019-02-08T01:55:01.902Z,10.20
2019-02-08T01:57:34.414Z,7.67
2019-02-08T02:00:16.991Z,11.12
2019-02-08T02:02:49.072Z,10.17
2019-02-08T02:05:21.516Z,10.17
2019-02-08T02:07:54.034Z,10.72
2019-02-08T02:10:36.098Z,10.53
2019-02-08T02:13:09.303Z,10.33
2019-02-08T02:15:42.479Z,10.70
2019-02-08T02:18:15.289Z,10.60
2019-02-08T02:20:47.345Z,8.53
2019-02-08T02:23:19.446Z,9.07
2019-02-08T02:25:51.583Z,10.23
2019-02-08T02:28:23.668Z,9.83
2019-02-08T02:30:55.760Z,11.10
2019-02-08T02:33:28.209Z,8.57
2019-02-08T02:36:00.539Z,12.20
2019-02-08T02:38:32.625Z,10.60
2019-02-08T02:41:05.043Z,9.87
2019-02-08T02:43:37.491Z,8.60
2019-02-08T02:46:10.052Z,7.85
2019-02-08T02:48:42.805Z,9.55
2019-02-08T02:51:15.254Z,10.55
2019-02-08T02:53:47.726Z,10.58
2019-02-08T02:56:20.061Z,9.30
2019-02-08T02:58:52.144Z,10.10
2019-02-08T03:01:24.192Z,8.97
2019-02-08T03:03:56.281Z,8.77
2019-02-08T03:06:28.438Z,8.57
2019-02-08T03:09:00.607Z,8.77
2019-02-08T03:11:33.081Z,7.78
2019-02-08T03:14:05.546Z,8.18
2019-02-08T03:16:37.876Z,8.03
2019-02-08T03:19:10.061Z,7.17
2019-02-08T03:21:42.190Z,7.77
2019-02-08T03:24:14.320Z,7.60
2019-02-08T03:26:46.677Z,7.40
2019-02-08T03:29:19.044Z,6.55
2019-02-08T03:31:51.505Z,6.72
2019-02-08T03:34:23.856Z,5.62
2019-02-08T03:36:55.930Z,5.97
2019-02-08T03:39:28.037Z,5.80
2019-02-08T03:42:00.099Z,6.63
2019-02-08T03:44:32.164Z,7.83
2019-02-08T03:47:04.237Z,7.17
2019-02-08T03:49:37.000Z,6.37
2019-02-08T03:52:09.173Z,6.40
2019-02-08T03:54:41.256Z,6.10
2019-02-08T03:57:13.327Z,6.30
2019-02-08T03:59:45.943Z,6.73
2019-02-08T04:02:18.408Z,6.70
2019-02-08T04:04:50.758Z,6.97
2019-02-08T04:07:23.099Z,5.97
2019-02-08T04:09:55.181Z,4.93
2019-02-08T04:12:27.245Z,5.63
2019-02-08T04:14:59.317Z,8.00
2019-02-08T04:17:31.391Z,5.90
2019-02-08T04:20:03.466Z,5.73
2019-02-08T04:22:36.116Z,6.22
2019-02-08T04:25:09.478Z,6.45
2019-02-08T04:27:41.578Z,6.87
2019-02-08T04:30:19.251Z,6.13
2019-02-08T04:32:51.309Z,5.73
2019-02-08T04:35:23.851Z,4.60
2019-02-08T04:37:56.276Z,5.15
2019-02-08T04:40:29.237Z,6.65
2019-02-08T04:43:01.610Z,5.62
2019-02-08T04:45:33.656Z,3.87
2019-02-08T04:48:06.125Z,6.47
2019-02-08T04:50:38.494Z,8.60
2019-02-08T04:53:10.558Z,7.13
2019-02-08T04:55:42.898Z,5.33
2019-02-08T04:58:15.620Z,7.67
2019-02-08T05:00:47.969Z,4.08
2019-02-08T05:03:20.027Z,3.90
2019-02-08T05:05:52.118Z,6.77
2019-02-08T05:08:24.189Z,6.40
2019-02-08T05:10:56.572Z,6.60
2019-02-08T05:13:29.248Z,4.20
2019-02-08T05:16:01.698Z,5.05
2019-02-08T05:18:34.038Z,5.53
2019-02-08T05:21:06.136Z,4.43
2019-02-08T05:23:38.447Z,5.70
2019-02-08T05:26:11.182Z,6.08
2019-02-08T05:28:44.377Z,6.17
2019-02-08T05:31:16.546Z,6.83
2019-02-08T05:33:48.617Z,5.80
2019-02-08T05:36:21.553Z,6.67
2019-02-08T05:38:53.965Z,9.08
2019-02-08T05:41:26.450Z,9.30
2019-02-08T05:43:59.226Z,7.12
2019-02-08T05:46:32.421Z,5.95
2019-02-08T05:49:05.199Z,6.17
2019-02-08T05:51:37.721Z,7.50
2019-02-08T05:54:10.116Z,7.15
2019-02-08T05:56:42.473Z,7.10
2019-02-08T05:59:14.573Z,7.50
2019-02-08T06:01:46.635Z,8.40
2019-02-08T06:04:18.710Z,7.23
2019-02-08T06:06:51.408Z,7.60
2019-02-08T06:09:23.873Z,6.30
2019-02-08T06:11:56.217Z,7.47
2019-02-08T06:14:28.276Z,7.40
2019-02-08T06:17:00.387Z,8.17
2019-02-08T06:19:32.483Z,7.53
2019-02-08T06:22:04.762Z,8.43
2019-02-08T06:24:37.145Z,8.23
2019-02-08T06:27:09.350Z,7.30
2019-02-08T06:29:41.696Z,5.78
2019-02-08T06:32:13.750Z,7.00
2019-02-08T06:34:45.838Z,7.30
2019-02-08T06:37:17.897Z,7.83
2019-02-08T06:39:49.968Z,8.33
2019-02-08T06:42:22.046Z,8.67
2019-02-08T06:44:54.111Z,5.97
2019-02-08T06:47:26.363Z,9.57
2019-02-08T06:49:58.830Z,8.85
2019-02-08T06:52:31.512Z,10.13
2019-02-08T06:55:10.612Z,10.55
2019-02-08T06:57:46.059Z,8.60
2019-02-08T07:00:42.621Z,9.37
2019-02-08T07:03:33.586Z,10.63
2019-02-08T07:06:24.792Z,8.47
2019-02-08T07:09:18.803Z,10.83
2019-02-08T07:12:08.605Z,9.13
2019-02-08T07:14:58.250Z,9.33
2019-02-08T07:18:01.350Z,8.30
2019-02-08T07:21:00.766Z,9.35
2019-02-08T07:23:57.497Z,8.27
2019-02-08T07:26:57.532Z,8.33
2019-02-08T07:29:47.097Z,8.63
2019-02-08T07:32:30.054Z,16.00
2019-02-08T07:35:33.636Z,10.50
2019-02-08T07:38:15.144Z,9.80
2019-02-08T07:41:20.654Z,10.77
2019-02-08T07:44:16.879Z,9.97
2019-02-08T07:47:07.251Z,11.90
2019-02-08T07:49:55.268Z,10.30
2019-02-08T07:52:45.346Z,11.23
2019-02-08T07:55:38.354Z,11.33
2019-02-08T07:58:35.681Z,6.40
2019-02-08T08:01:42.194Z,8.03
2019-02-08T08:04:31.985Z,12.03
2019-02-08T08:07:18.599Z,14.00
2019-02-08T08:10:08.486Z,13.43
2019-02-08T08:12:53.057Z,13.03
2019-02-08T08:15:41.617Z,10.77
2019-02-08T08:18:37.019Z,10.87
2019-02-08T08:21:43.162Z,11.53
2019-02-08T08:24:37.726Z,13.60
2019-02-08T08:27:24.528Z,13.33
2019-02-08T08:30:11.636Z,13.20
2019-02-08T08:33:23.967Z,14.63
2019-02-08T08:36:37.697Z,10.13
2019-02-08T08:40:15.057Z,10.98
2019-02-08T08:43:51.887Z,9.90
2019-02-08T08:46:59.956Z,13.40
2019-02-08T08:50:07.415Z,13.60
2019-02-08T08:53:31.127Z,16.10
2019-02-08T08:56:56.546Z,16.25
2019-02-08T09:00:36.986Z,16.83
2019-02-08T09:04:19.592Z,14.53
2019-02-08T09:07:53.577Z,17.87
2019-02-08T09:11:28.239Z,15.45
2019-02-08T09:14:59.294Z,14.23
2019-02-08T09:18:40.260Z,18.27
2019-02-08T09:22:07.911Z,17.50
2019-02-08T09:25:40.619Z,15.07
2019-02-08T09:29:06.640Z,10.97
2019-02-08T09:32:29.972Z,14.00
2019-02-08T09:35:48.591Z,16.43
2019-02-08T09:39:27.932Z,13.28
2019-02-08T09:43:02.429Z,15.70
2019-02-08T09:46:15.475Z,18.45
2019-02-08T09:49:49.707Z,15.10
2019-02-08T09:53:23.103Z,13.40
2019-02-08T09:57:01.787Z,12.15
2019-02-08T10:00:01.461Z,11.55
2019-02-08T10:03:18.268Z,12.20
2019-02-08T10:07:06.755Z,11.95
2019-02-08T10:11:03.696Z,10.88
2019-02-08T10:14:56.310Z,8.15
2019-02-08T10:18:33.371Z,11.20
2019-02-08T10:22:13.873Z,10.43
2019-02-08T10:25:39.400Z,9.30
2019-02-08T10:29:23.935Z,9.40
2019-02-08T10:32:54.808Z,11.48
2019-02-08T10:36:20.929Z,14.23
2019-02-08T10:39:43.614Z,11.38
2019-02-08T10:42:59.082Z,10.98
2019-02-08T10:46:26.425Z,10.72
2019-02-08T10:50:08.398Z,11.78
2019-02-08T10:53:53.263Z,9.70
2019-02-08T10:57:27.900Z,9.30
2019-02-08T11:00:56.695Z,8.05
2019-02-08T11:04:27.780Z,11.97
2019-02-08T11:08:08.797Z,10.13
2019-02-08T11:12:01.278Z,14.18
2019-02-08T11:15:44.692Z,12.60
2019-02-08T11:19:19.274Z,11.93
2019-02-08T11:21:53.832Z,10.10
2019-02-08T11:24:28.464Z,8.30
2019-02-08T11:27:03.172Z,7.53
2019-02-08T11:29:35.844Z,6.55
2019-02-08T11:32:09.395Z,5.78
2019-02-08T11:34:42.112Z,5.72
2019-02-08T11:37:14.750Z,5.62
2019-02-08T11:39:47.199Z,5.15
2019-02-08T11:42:19.550Z,5.42
2019-02-08T11:44:51.617Z,5.07
2019-02-08T11:47:23.684Z,5.00
2019-02-08T11:49:55.748Z,5.73
2019-02-08T11:52:27.801Z,4.33
2019-02-08T11:54:59.872Z,5.83
2019-02-08T11:57:32.285Z,3.83
2019-02-08T12:00:06.340Z,5.45
2019-02-08T12:02:40.598Z,5.10
2019-02-08T12:05:14.002Z,3.77
2019-02-08T12:07:46.357Z,5.33
2019-02-08T12:10:18.741Z,5.08
2019-02-08T12:12:51.093Z,2.98
2019-02-08T12:15:24.204Z,4.05
2019-02-08T12:17:56.275Z,3.87
2019-02-08T12:20:28.343Z,3.53
2019-02-08T12:23:00.402Z,3.43
2019-02-08T12:25:32.471Z,3.27
2019-02-08T12:28:04.934Z,3.77
2019-02-08T12:30:39.878Z,4.08
2019-02-08T12:33:12.529Z,4.22
2019-02-08T12:35:44.887Z,4.00
2019-02-08T12:38:16.942Z,3.03
2019-02-08T12:40:49.098Z,5.07
2019-02-08T12:43:21.460Z,3.90
2019-02-08T12:45:53.798Z,3.72
2019-02-08T12:48:26.478Z,3.77
2019-02-08T12:50:58.798Z,3.45
2019-02-08T12:53:31.562Z,3.92
2019-02-08T12:56:04.234Z,3.75
2019-02-08T12:58:36.671Z,4.33
2019-02-08T13:01:09.017Z,3.45
2019-02-08T13:03:41.441Z,3.47
2019-02-08T13:06:13.787Z,3.12
2019-02-08T13:08:46.492Z,3.72
2019-02-08T13:11:18.813Z,4.15
2019-02-08T13:13:51.221Z,4.60
2019-02-08T13:16:23.664Z,4.42
2019-02-08T13:18:56.392Z,4.35
2019-02-08T13:21:28.717Z,3.65
2019-02-08T13:24:00.842Z,4.70
2019-02-08T13:26:33.256Z,3.58
2019-02-08T13:29:06.296Z,4.08
2019-02-08T13:31:38.345Z,4.10
2019-02-08T13:34:11.078Z,4.28
2019-02-08T13:36:43.427Z,4.65
2019-02-08T13:39:15.877Z,3.55
2019-02-08T13:41:48.360Z,4.90
2019-02-08T13:44:21.001Z,4.65
2019-02-08T13:46:53.416Z,4.17
2019-02-08T13:49:26.070Z,4.35
2019-02-08T13:51:58.446Z,3.27
2019-02-08T13:54:30.915Z,3.75
2019-02-08T13:57:04.100Z,4.67
2019-02-08T14:02:07.043Z,4.20
2019-02-08T14:04:39.166Z,4.67
2019-02-08T14:07:11.490Z,4.47
2019-02-08T14:09:43.845Z,5.00
2019-02-08T14:12:16.160Z,4.25
2019-02-08T14:14:48.931Z,4.80
2019-02-08T14:17:21.282Z,4.28
2019-02-08T14:19:53.622Z,3.52
2019-02-08T14:22:26.071Z,4.97
2019-02-08T14:24:58.390Z,3.40
2019-02-08T14:27:30.726Z,4.47
2019-02-08T14:30:03.290Z,4.12
2019-02-08T14:32:35.876Z,3.52
2019-02-08T14:35:10.548Z,3.77
2019-02-08T14:37:43.554Z,3.70
2019-02-08T14:40:20.399Z,3.08
2019-02-08T14:42:53.226Z,3.52
2019-02-08T14:45:25.575Z,3.98
2019-02-08T14:47:57.895Z,3.90
2019-02-08T14:50:30.001Z,3.63
2019-02-08T14:53:02.628Z,3.90
2019-02-08T14:55:35.251Z,4.30
2019-02-08T14:58:09.786Z,4.62
2019-02-08T15:00:42.605Z,3.55
2019-02-08T15:03:15.280Z,3.27
2019-02-08T15:05:47.682Z,3.37
2019-02-08T15:08:20.329Z,3.95
2019-02-08T15:10:53.313Z,3.15
2019-02-08T15:13:25.644Z,4.00
2019-02-08T15:15:57.896Z,3.93
2019-02-08T15:18:30.299Z,3.27
2019-02-08T15:21:02.813Z,3.30
2019-02-08T15:23:37.523Z,3.70
2019-02-08T15:26:10.082Z,3.67
2019-02-08T15:28:42.455Z,3.20
2019-02-08T15:31:14.525Z,3.53
2019-02-08T15:33:46.635Z,3.13
2019-02-08T15:36:19.280Z,3.45
2019-02-08T15:38:51.333Z,3.40
2019-02-08T15:41:23.416Z,2.63
2019-02-08T15:43:55.842Z,2.83
2019-02-08T15:46:28.264Z,2.92
2019-02-08T15:49:00.606Z,2.80
2019-02-08T15:51:32.838Z,2.23
2019-02-08T15:54:05.500Z,2.80
2019-02-08T15:56:38.001Z,3.00
2019-02-08T15:59:10.329Z,2.37
2019-02-08T16:01:42.800Z,4.57
2019-02-08T16:04:15.119Z,3.58
2019-02-08T16:06:47.542Z,3.57
2019-02-08T16:09:19.874Z,3.10
2019-02-08T16:11:51.998Z,3.43
2019-02-08T16:14:24.179Z,3.50
2019-02-08T16:16:56.574Z,2.58
2019-02-08T16:19:28.617Z,2.30
2019-02-08T16:22:00.687Z,2.13
2019-02-08T16:24:32.862Z,2.60
2019-02-08T16:27:06.033Z,2.55
2019-02-08T16:32:10.638Z,2.37
2019-02-08T16:34:42.899Z,2.80
2019-02-08T16:37:15.250Z,3.75
2019-02-08T16:39:47.336Z,2.80
2019-02-08T16:42:19.417Z,4.03
2019-02-08T16:44:51.470Z,5.23
2019-02-08T16:47:23.624Z,3.97
2019-02-08T16:49:56.154Z,3.70
2019-02-08T16:52:28.798Z,4.60
2019-02-08T16:55:01.135Z,3.25
2019-02-08T16:57:33.327Z,4.40
2019-02-08T17:00:14.892Z,3.75
2019-02-08T17:02:47.805Z,3.27
2019-02-08T17:05:21.508Z,4.17
2019-02-08T17:07:54.145Z,4.55
2019-02-08T17:10:26.644Z,4.10
2019-02-08T17:12:59.123Z,3.45
2019-02-08T17:15:31.714Z,3.92
2019-02-08T17:18:04.392Z,4.55
2019-02-08T17:20:40.409Z,4.45
2019-02-08T17:23:13.067Z,4.45
2019-02-08T17:25:45.127Z,4.50
2019-02-08T17:28:17.757Z,4.28
2019-02-08T17:30:50.193Z,4.30
2019-02-08T17:33:22.541Z,4.03
2019-02-08T17:35:54.994Z,3.87
2019-02-08T17:38:28.428Z,3.20
2019-02-08T17:41:01.246Z,3.58
2019-02-08T17:43:34.179Z,2.67
2019-02-08T17:46:07.252Z,3.37
2019-02-08T17:48:39.614Z,3.92
2019-02-08T17:51:11.692Z,3.03
2019-02-08T17:53:43.910Z,3.23
2019-02-08T17:56:16.245Z,3.90
2019-02-08T17:58:48.388Z,3.60
2019-02-08T18:01:20.699Z,3.43
2019-02-08T18:03:53.153Z,3.35
2019-02-08T18:06:25.912Z,3.42
2019-02-08T18:08:58.395Z,3.02
2019-02-08T18:11:30.795Z,3.00
2019-02-08T18:14:03.307Z,3.08
2019-02-08T18:16:35.630Z,3.95
2019-02-08T18:19:07.705Z,2.67
2019-02-08T18:21:39.748Z,2.23
2019-02-08T18:24:12.713Z,4.30
2019-02-08T18:26:45.224Z,4.53
2019-02-08T18:29:17.651Z,4.08
2019-02-08T18:31:50.007Z,3.50
2019-02-08T18:34:22.125Z,2.93
2019-02-08T18:36:54.208Z,2.90
2019-02-08T18:39:26.868Z,3.30
2019-02-08T18:41:58.945Z,3.33
2019-02-08T18:44:31.744Z,3.20
2019-02-08T18:47:04.191Z,3.90
2019-02-08T18:49:36.540Z,4.12
2019-02-08T18:52:09.012Z,4.23
2019-02-08T18:54:41.551Z,3.20
2019-02-08T18:57:13.939Z,3.60
2019-02-08T18:59:46.377Z,3.10
2019-02-08T19:02:19.067Z,4.00
2019-02-08T19:04:51.427Z,4.42
2019-02-08T19:07:23.520Z,3.63
2019-02-08T19:09:55.913Z,3.23
2019-02-08T19:12:28.265Z,3.25
2019-02-08T19:15:00.521Z,3.30
2019-02-08T19:17:33.261Z,4.53
2019-02-08T19:20:06.666Z,3.77
2019-02-08T19:22:39.734Z,3.87
2019-02-08T19:25:16.478Z,3.40
2019-02-08T19:27:49.124Z,3.92
2019-02-08T19:30:25.136Z,3.83
2019-02-08T19:32:57.777Z,3.72
2019-02-08T19:35:29.964Z,2.83
2019-02-08T19:38:02.037Z,3.50
2019-02-08T19:40:37.508Z,4.10
2019-02-08T19:43:10.382Z,3.95
2019-02-08T19:45:42.869Z,3.20
2019-02-08T19:48:15.228Z,4.08
2019-02-08T19:50:48.056Z,3.97
2019-02-08T19:53:20.412Z,4.80
2019-02-08T19:55:52.525Z,3.60
2019-02-08T19:58:24.927Z,4.37
2019-02-08T20:00:57.328Z,4.10
2019-02-08T20:03:29.431Z,3.30
2019-02-08T20:06:02.942Z,3.62
2019-02-08T20:08:35.646Z,4.17
2019-02-08T20:11:08.013Z,4.45
2019-02-08T20:13:40.119Z,4.80
2019-02-08T20:16:12.203Z,4.00
2019-02-08T20:18:44.330Z,3.00
2019-02-08T20:21:16.687Z,3.90
2019-02-08T20:23:49.236Z,4.15
2019-02-08T20:26:21.583Z,4.47
2019-02-08T20:28:53.654Z,3.63
2019-02-08T20:31:26.299Z,4.50
2019-02-08T20:33:58.426Z,4.23
2019-02-08T20:36:30.620Z,4.27
2019-02-08T20:39:03.276Z,4.07
2019-02-08T20:41:35.869Z,3.72
2019-02-08T20:44:08.317Z,3.80
2019-02-08T20:46:40.807Z,4.15
2019-02-08T20:49:13.263Z,3.87
2019-02-08T20:51:45.676Z,3.52
2019-02-08T20:54:17.828Z,2.47
2019-02-08T20:56:50.032Z,3.93
2019-02-08T20:59:22.711Z,3.58
2019-02-08T21:01:55.244Z,3.27
2019-02-08T21:04:28.302Z,3.45
2019-02-08T21:07:00.810Z,3.30
2019-02-08T21:09:33.561Z,3.55
2019-02-08T21:12:06.383Z,3.98
2019-02-08T21:14:39.373Z,4.08
2019-02-08T21:17:12.027Z,3.15
2019-02-08T21:19:44.545Z,3.75
2019-02-08T21:22:17.070Z,3.45
2019-02-08T21:24:50.451Z,2.75
2019-02-08T21:27:24.163Z,2.72
2019-02-08T21:29:56.818Z,3.10
2019-02-08T21:32:29.206Z,3.07
2019-02-08T21:35:01.878Z,3.27
2019-02-08T21:37:34.584Z,2.52
2019-02-08T21:40:10.116Z,2.95
2019-02-08T21:42:43.128Z,3.20
2019-02-08T21:45:21.668Z,5.10
2019-02-08T21:47:55.223Z,4.03
2019-02-08T21:50:27.817Z,2.90
2019-02-08T21:53:00.535Z,3.22
2019-02-08T21:55:33.418Z,4.47
2019-02-08T21:58:06.556Z,2.72
2019-02-08T22:00:41.381Z,3.40
2019-02-08T22:03:14.200Z,2.75
2019-02-08T22:05:55.967Z,3.17
2019-02-08T22:08:28.644Z,4.08
2019-02-08T22:11:00.697Z,3.63
2019-02-08T22:13:33.187Z,3.33
2019-02-08T22:16:06.519Z,4.00
2019-02-08T22:21:09.640Z,3.08
2019-02-08T22:23:42.009Z,3.00
2019-02-08T22:26:14.051Z,3.60
2019-02-08T22:28:46.983Z,4.37
2019-02-08T22:31:19.315Z,4.12
2019-02-08T22:33:51.390Z,2.97
2019-02-08T22:36:23.445Z,3.90
2019-02-08T22:38:56.084Z,2.83
2019-02-08T22:41:28.198Z,1.97
2019-02-08T22:44:00.443Z,2.30
2019-02-08T22:46:33.177Z,2.98
2019-02-08T22:49:05.847Z,2.90
2019-02-08T22:51:38.278Z,3.33
2019-02-08T22:54:10.436Z,3.17
2019-02-08T22:56:42.793Z,2.55
2019-02-08T22:59:21.805Z,2.10
2019-02-08T23:01:53.159Z,2.73
2019-02-08T23:04:25.620Z,2.70
2019-02-08T23:06:58.040Z,3.10
2019-02-08T23:09:30.484Z,2.77
2019-02-08T23:12:03.454Z,3.08
2019-02-08T23:14:36.136Z,2.50
2019-02-08T23:17:08.774Z,2.30
2019-02-08T23:19:42.387Z,2.72
2019-02-08T23:22:14.771Z,2.20
2019-02-08T23:24:47.215Z,2.60
2019-02-08T23:27:19.596Z,2.80
2019-02-08T23:29:51.662Z,1.83
2019-02-08T23:32:24.052Z,2.87
2019-02-08T23:34:56.405Z,2.95
2019-02-08T23:37:28.722Z,2.03
2019-02-08T23:40:01.217Z,2.65
2019-02-08T23:42:33.622Z,2.70
2019-02-08T23:45:08.673Z,1.23
2019-02-08T23:47:40.734Z,1.80
2019-02-08T23:50:12.930Z,2.47
2019-02-08T23:52:45.297Z,2.17
2019-02-08T23:55:17.884Z,2.17
2019-02-08T23:57:50.604Z,2.67
